sensor_id;sensor_type;location;lat;lon;timestamp;P1;durP1;ratioP1;P2;durP2;ratioP2
9072;SDS011;4572;41.642;25.370;2023-07-13T00:01:26;13.65;;;8.45;;
9072;SDS011;4572;41.642;25.370;2023-07-13T00:03:53;9.63;;;8.13;;
9072;SDS011;4572;41.642;25.370;2023-07-13T00:06:18;9.18;;;7.38;;
9072;SDS011;4572;41.642;25.370;2023-07-13T00:08:45;9.30;;;7.18;;
9072;SDS011;4572;41.642;25.370;2023-07-13T00:11:12;10.77;;;7.82;;
9072;SDS011;4572;41.642;25.370;2023-07-13T00:13:38;11.07;;;7.53;;
9072;SDS011;4572;41.642;25.370;2023-07-13T00:16:04;9.50;;;8.18;;
9072;SDS011;4572;41.642;25.370;2023-07-13T00:18:30;8.93;;;7.35;;
9072;SDS011;4572;41.642;25.370;2023-07-13T00:20:56;8.85;;;7.55;;
9072;SDS011;4572;41.642;25.370;2023-07-13T00:23:30;8.82;;;7.93;;
9072;SDS011;4572;41.642;25.370;2023-07-13T00:25:59;10.63;;;7.80;;
9072;SDS011;4572;41.642;25.370;2023-07-13T00:28:25;9.52;;;8.10;;
9072;SDS011;4572;41.642;25.370;2023-07-13T00:30:51;8.80;;;7.80;;
9072;SDS011;4572;41.642;25.370;2023-07-13T00:33:16;10.57;;;8.07;;
9072;SDS011;4572;41.642;25.370;2023-07-13T00:35:42;10.85;;;8.50;;
9072;SDS011;4572;41.642;25.370;2023-07-13T00:38:09;9.63;;;8.63;;
9072;SDS011;4572;41.642;25.370;2023-07-13T00:40:34;9.60;;;8.30;;
9072;SDS011;4572;41.642;25.370;2023-07-13T00:43:00;12.18;;;8.52;;
9072;SDS011;4572;41.642;25.370;2023-07-13T00:47:51;9.68;;;8.40;;
9072;SDS011;4572;41.642;25.370;2023-07-13T00:50:16;9.10;;;7.68;;
9072;SDS011;4572;41.642;25.370;2023-07-13T00:52:44;9.32;;;7.82;;
9072;SDS011;4572;41.642;25.370;2023-07-13T00:55:12;10.18;;;7.90;;
9072;SDS011;4572;41.642;25.370;2023-07-13T00:57:38;9.45;;;7.82;;
9072;SDS011;4572;41.642;25.370;2023-07-13T01:00:05;8.82;;;7.50;;
9072;SDS011;4572;41.642;25.370;2023-07-13T01:02:34;8.65;;;7.65;;
9072;SDS011;4572;41.642;25.370;2023-07-13T01:05:01;10.10;;;7.63;;
9072;SDS011;4572;41.642;25.370;2023-07-13T01:07:30;9.02;;;7.57;;
9072;SDS011;4572;41.642;25.370;2023-07-13T01:09:56;8.73;;;7.28;;
9072;SDS011;4572;41.642;25.370;2023-07-13T01:12:22;10.57;;;7.57;;
9072;SDS011;4572;41.642;25.370;2023-07-13T01:14:48;8.68;;;7.78;;
9072;SDS011;4572;41.642;25.370;2023-07-13T01:17:13;8.40;;;7.53;;
9072;SDS011;4572;41.642;25.370;2023-07-13T01:19:44;8.98;;;8.07;;
9072;SDS011;4572;41.642;25.370;2023-07-13T01:22:17;10.07;;;8.55;;
9072;SDS011;4572;41.642;25.370;2023-07-13T01:24:44;9.85;;;7.88;;
9072;SDS011;4572;41.642;25.370;2023-07-13T01:27:12;10.32;;;8.73;;
9072;SDS011;4572;41.642;25.370;2023-07-13T01:29:40;8.65;;;7.63;;
9072;SDS011;4572;41.642;25.370;2023-07-13T01:32:10;9.82;;;8.10;;
9072;SDS011;4572;41.642;25.370;2023-07-13T01:34:37;12.35;;;8.43;;
9072;SDS011;4572;41.642;25.370;2023-07-13T01:37:06;8.63;;;7.70;;
9072;SDS011;4572;41.642;25.370;2023-07-13T01:39:32;9.70;;;8.00;;
9072;SDS011;4572;41.642;25.370;2023-07-13T01:41:58;11.10;;;8.75;;
9072;SDS011;4572;41.642;25.370;2023-07-13T01:44:23;10.68;;;8.68;;
9072;SDS011;4572;41.642;25.370;2023-07-13T01:46:49;10.50;;;8.07;;
9072;SDS011;4572;41.642;25.370;2023-07-13T01:49:14;10.02;;;8.35;;
9072;SDS011;4572;41.642;25.370;2023-07-13T01:51:40;9.30;;;8.02;;
9072;SDS011;4572;41.642;25.370;2023-07-13T01:54:05;9.80;;;8.07;;
9072;SDS011;4572;41.642;25.370;2023-07-13T01:56:31;8.40;;;7.55;;
9072;SDS011;4572;41.642;25.370;2023-07-13T01:58:57;9.68;;;7.32;;
9072;SDS011;4572;41.642;25.370;2023-07-13T02:01:22;9.18;;;7.93;;
9072;SDS011;4572;41.642;25.370;2023-07-13T02:03:47;9.60;;;8.05;;
9072;SDS011;4572;41.642;25.370;2023-07-13T02:06:13;8.65;;;7.70;;
9072;SDS011;4572;41.642;25.370;2023-07-13T02:08:39;9.77;;;8.15;;
9072;SDS011;4572;41.642;25.370;2023-07-13T02:11:05;9.75;;;8.27;;
9072;SDS011;4572;41.642;25.370;2023-07-13T02:13:31;11.77;;;8.70;;
9072;SDS011;4572;41.642;25.370;2023-07-13T02:15:56;9.27;;;8.23;;
9072;SDS011;4572;41.642;25.370;2023-07-13T02:18:22;11.02;;;8.75;;
9072;SDS011;4572;41.642;25.370;2023-07-13T02:20:47;11.50;;;7.93;;
9072;SDS011;4572;41.642;25.370;2023-07-13T02:23:13;9.00;;;7.68;;
9072;SDS011;4572;41.642;25.370;2023-07-13T02:25:38;11.57;;;7.80;;
9072;SDS011;4572;41.642;25.370;2023-07-13T02:28:04;10.88;;;8.05;;
9072;SDS011;4572;41.642;25.370;2023-07-13T02:30:30;9.88;;;8.20;;
9072;SDS011;4572;41.642;25.370;2023-07-13T02:32:56;9.95;;;7.97;;
9072;SDS011;4572;41.642;25.370;2023-07-13T02:35:22;9.95;;;8.18;;
9072;SDS011;4572;41.642;25.370;2023-07-13T02:37:48;12.52;;;7.80;;
9072;SDS011;4572;41.642;25.370;2023-07-13T02:40:13;10.15;;;8.13;;
9072;SDS011;4572;41.642;25.370;2023-07-13T02:42:39;9.85;;;8.07;;
9072;SDS011;4572;41.642;25.370;2023-07-13T02:45:05;10.02;;;7.95;;
9072;SDS011;4572;41.642;25.370;2023-07-13T02:47:32;10.32;;;7.80;;
9072;SDS011;4572;41.642;25.370;2023-07-13T02:49:58;10.13;;;7.20;;
9072;SDS011;4572;41.642;25.370;2023-07-13T02:52:23;9.30;;;8.07;;
9072;SDS011;4572;41.642;25.370;2023-07-13T02:54:49;8.48;;;7.35;;
9072;SDS011;4572;41.642;25.370;2023-07-13T02:57:14;8.48;;;7.57;;
9072;SDS011;4572;41.642;25.370;2023-07-13T02:59:40;12.52;;;7.85;;
9072;SDS011;4572;41.642;25.370;2023-07-13T03:02:06;8.30;;;7.32;;
9072;SDS011;4572;41.642;25.370;2023-07-13T03:04:31;11.43;;;7.57;;
9072;SDS011;4572;41.642;25.370;2023-07-13T03:06:56;9.25;;;8.15;;
9072;SDS011;4572;41.642;25.370;2023-07-13T03:09:23;8.95;;;7.68;;
9072;SDS011;4572;41.642;25.370;2023-07-13T03:11:49;9.43;;;7.43;;
9072;SDS011;4572;41.642;25.370;2023-07-13T03:14:18;8.60;;;7.65;;
9072;SDS011;4572;41.642;25.370;2023-07-13T03:16:43;8.18;;;6.95;;
9072;SDS011;4572;41.642;25.370;2023-07-13T03:19:09;8.32;;;7.53;;
9072;SDS011;4572;41.642;25.370;2023-07-13T03:21:34;9.50;;;7.22;;
9072;SDS011;4572;41.642;25.370;2023-07-13T03:24:00;9.75;;;7.97;;
9072;SDS011;4572;41.642;25.370;2023-07-13T03:26:25;10.50;;;7.60;;
9072;SDS011;4572;41.642;25.370;2023-07-13T03:28:51;13.30;;;7.65;;
9072;SDS011;4572;41.642;25.370;2023-07-13T03:31:18;10.23;;;8.07;;
9072;SDS011;4572;41.642;25.370;2023-07-13T03:33:45;9.02;;;8.05;;
9072;SDS011;4572;41.642;25.370;2023-07-13T03:36:19;10.80;;;7.93;;
9072;SDS011;4572;41.642;25.370;2023-07-13T03:38:49;8.88;;;7.80;;
9072;SDS011;4572;41.642;25.370;2023-07-13T03:41:17;10.13;;;8.43;;
9072;SDS011;4572;41.642;25.370;2023-07-13T03:43:43;13.93;;;8.65;;
9072;SDS011;4572;41.642;25.370;2023-07-13T03:46:08;13.07;;;9.00;;
9072;SDS011;4572;41.642;25.370;2023-07-13T03:48:34;9.70;;;8.15;;
9072;SDS011;4572;41.642;25.370;2023-07-13T03:51:00;10.10;;;8.50;;
9072;SDS011;4572;41.642;25.370;2023-07-13T03:53:26;11.10;;;8.27;;
9072;SDS011;4572;41.642;25.370;2023-07-13T03:55:52;9.63;;;8.13;;
9072;SDS011;4572;41.642;25.370;2023-07-13T03:58:25;11.32;;;9.18;;
9072;SDS011;4572;41.642;25.370;2023-07-13T04:00:51;10.25;;;8.98;;
9072;SDS011;4572;41.642;25.370;2023-07-13T04:03:17;14.38;;;9.45;;
9072;SDS011;4572;41.642;25.370;2023-07-13T04:05:43;13.32;;;8.70;;
9072;SDS011;4572;41.642;25.370;2023-07-13T04:08:08;9.52;;;8.43;;
9072;SDS011;4572;41.642;25.370;2023-07-13T04:10:34;11.65;;;8.80;;
9072;SDS011;4572;41.642;25.370;2023-07-13T04:12:59;10.50;;;9.25;;
9072;SDS011;4572;41.642;25.370;2023-07-13T04:15:25;11.55;;;7.82;;
9072;SDS011;4572;41.642;25.370;2023-07-13T04:17:52;9.95;;;8.13;;
9072;SDS011;4572;41.642;25.370;2023-07-13T04:20:18;9.60;;;8.60;;
9072;SDS011;4572;41.642;25.370;2023-07-13T04:22:45;11.48;;;8.70;;
9072;SDS011;4572;41.642;25.370;2023-07-13T04:25:11;11.88;;;8.65;;
9072;SDS011;4572;41.642;25.370;2023-07-13T04:27:36;10.20;;;8.60;;
9072;SDS011;4572;41.642;25.370;2023-07-13T04:30:02;10.90;;;8.85;;
9072;SDS011;4572;41.642;25.370;2023-07-13T04:32:27;11.32;;;8.52;;
9072;SDS011;4572;41.642;25.370;2023-07-13T04:34:53;10.32;;;9.23;;
9072;SDS011;4572;41.642;25.370;2023-07-13T04:37:20;11.45;;;9.02;;
9072;SDS011;4572;41.642;25.370;2023-07-13T04:39:46;9.45;;;8.10;;
9072;SDS011;4572;41.642;25.370;2023-07-13T04:42:11;12.15;;;9.73;;
9072;SDS011;4572;41.642;25.370;2023-07-13T04:44:37;9.10;;;7.90;;
9072;SDS011;4572;41.642;25.370;2023-07-13T04:47:03;12.70;;;9.27;;
9072;SDS011;4572;41.642;25.370;2023-07-13T04:49:29;11.63;;;8.95;;
9072;SDS011;4572;41.642;25.370;2023-07-13T04:51:54;49.50;;;13.40;;
9072;SDS011;4572;41.642;25.370;2023-07-13T04:54:20;16.13;;;10.70;;
9072;SDS011;4572;41.642;25.370;2023-07-13T04:56:46;28.42;;;10.23;;
9072;SDS011;4572;41.642;25.370;2023-07-13T04:59:12;20.70;;;9.88;;
9072;SDS011;4572;41.642;25.370;2023-07-13T05:01:37;15.82;;;9.27;;
9072;SDS011;4572;41.642;25.370;2023-07-13T05:04:03;14.88;;;9.85;;
9072;SDS011;4572;41.642;25.370;2023-07-13T05:06:28;11.65;;;9.25;;
9072;SDS011;4572;41.642;25.370;2023-07-13T05:08:55;11.77;;;9.82;;
9072;SDS011;4572;41.642;25.370;2023-07-13T05:11:21;11.38;;;9.70;;
9072;SDS011;4572;41.642;25.370;2023-07-13T05:13:46;12.80;;;9.30;;
9072;SDS011;4572;41.642;25.370;2023-07-13T05:16:12;12.00;;;9.00;;
9072;SDS011;4572;41.642;25.370;2023-07-13T05:18:38;11.43;;;8.80;;
9072;SDS011;4572;41.642;25.370;2023-07-13T05:21:05;11.98;;;9.20;;
9072;SDS011;4572;41.642;25.370;2023-07-13T05:23:32;11.30;;;9.30;;
9072;SDS011;4572;41.642;25.370;2023-07-13T05:25:59;12.48;;;9.82;;
9072;SDS011;4572;41.642;25.370;2023-07-13T05:28:25;13.40;;;9.23;;
9072;SDS011;4572;41.642;25.370;2023-07-13T05:30:52;11.57;;;9.82;;
9072;SDS011;4572;41.642;25.370;2023-07-13T05:33:19;13.80;;;9.52;;
9072;SDS011;4572;41.642;25.370;2023-07-13T05:35:45;18.52;;;11.30;;
9072;SDS011;4572;41.642;25.370;2023-07-13T05:38:11;12.98;;;9.10;;
9072;SDS011;4572;41.642;25.370;2023-07-13T05:40:37;14.55;;;8.70;;
9072;SDS011;4572;41.642;25.370;2023-07-13T05:43:02;11.23;;;8.68;;
9072;SDS011;4572;41.642;25.370;2023-07-13T05:45:28;10.07;;;8.93;;
9072;SDS011;4572;41.642;25.370;2023-07-13T05:47:53;14.50;;;9.70;;
9072;SDS011;4572;41.642;25.370;2023-07-13T05:50:19;11.90;;;9.48;;
9072;SDS011;4572;41.642;25.370;2023-07-13T05:52:44;11.43;;;9.25;;
9072;SDS011;4572;41.642;25.370;2023-07-13T05:55:10;9.95;;;8.95;;
9072;SDS011;4572;41.642;25.370;2023-07-13T05:57:35;12.85;;;9.15;;
9072;SDS011;4572;41.642;25.370;2023-07-13T06:00:01;19.90;;;9.85;;
9072;SDS011;4572;41.642;25.370;2023-07-13T06:02:27;14.73;;;8.80;;
9072;SDS011;4572;41.642;25.370;2023-07-13T06:04:52;13.98;;;8.82;;
9072;SDS011;4572;41.642;25.370;2023-07-13T06:07:18;14.10;;;9.70;;
9072;SDS011;4572;41.642;25.370;2023-07-13T06:09:43;10.27;;;8.13;;
9072;SDS011;4572;41.642;25.370;2023-07-13T06:12:09;11.57;;;9.35;;
9072;SDS011;4572;41.642;25.370;2023-07-13T06:14:35;11.65;;;9.10;;
9072;SDS011;4572;41.642;25.370;2023-07-13T06:17:01;10.27;;;8.88;;
9072;SDS011;4572;41.642;25.370;2023-07-13T06:19:28;11.20;;;9.07;;
9072;SDS011;4572;41.642;25.370;2023-07-13T06:21:54;11.75;;;8.98;;
9072;SDS011;4572;41.642;25.370;2023-07-13T06:24:20;11.30;;;9.38;;
9072;SDS011;4572;41.642;25.370;2023-07-13T06:26:45;10.95;;;9.60;;
9072;SDS011;4572;41.642;25.370;2023-07-13T06:29:11;12.63;;;9.32;;
9072;SDS011;4572;41.642;25.370;2023-07-13T06:31:38;14.90;;;10.27;;
9072;SDS011;4572;41.642;25.370;2023-07-13T06:34:03;11.65;;;8.90;;
9072;SDS011;4572;41.642;25.370;2023-07-13T06:36:29;12.57;;;9.60;;
9072;SDS011;4572;41.642;25.370;2023-07-13T06:38:54;14.65;;;9.48;;
9072;SDS011;4572;41.642;25.370;2023-07-13T06:41:20;11.68;;;8.70;;
9072;SDS011;4572;41.642;25.370;2023-07-13T06:43:47;12.05;;;8.50;;
9072;SDS011;4572;41.642;25.370;2023-07-13T06:46:12;10.07;;;8.98;;
9072;SDS011;4572;41.642;25.370;2023-07-13T06:48:38;12.48;;;8.65;;
9072;SDS011;4572;41.642;25.370;2023-07-13T06:51:03;12.75;;;9.48;;
9072;SDS011;4572;41.642;25.370;2023-07-13T06:53:30;10.35;;;9.07;;
9072;SDS011;4572;41.642;25.370;2023-07-13T06:55:55;11.45;;;8.77;;
9072;SDS011;4572;41.642;25.370;2023-07-13T06:58:22;11.95;;;9.85;;
9072;SDS011;4572;41.642;25.370;2023-07-13T07:00:50;9.35;;;8.35;;
9072;SDS011;4572;41.642;25.370;2023-07-13T07:03:16;11.15;;;9.55;;
9072;SDS011;4572;41.642;25.370;2023-07-13T07:05:42;9.82;;;8.80;;
9072;SDS011;4572;41.642;25.370;2023-07-13T07:08:07;10.35;;;8.48;;
9072;SDS011;4572;41.642;25.370;2023-07-13T07:10:33;10.85;;;8.45;;
9072;SDS011;4572;41.642;25.370;2023-07-13T07:12:59;10.02;;;8.00;;
9072;SDS011;4572;41.642;25.370;2023-07-13T07:15:25;14.05;;;9.23;;
9072;SDS011;4572;41.642;25.370;2023-07-13T07:17:51;10.30;;;8.75;;
9072;SDS011;4572;41.642;25.370;2023-07-13T07:20:16;10.13;;;8.90;;
9072;SDS011;4572;41.642;25.370;2023-07-13T07:22:42;11.05;;;7.85;;
9072;SDS011;4572;41.642;25.370;2023-07-13T07:25:07;9.25;;;8.35;;
9072;SDS011;4572;41.642;25.370;2023-07-13T07:27:34;11.30;;;8.15;;
9072;SDS011;4572;41.642;25.370;2023-07-13T07:29:59;8.80;;;7.90;;
9072;SDS011;4572;41.642;25.370;2023-07-13T07:32:25;10.48;;;8.90;;
9072;SDS011;4572;41.642;25.370;2023-07-13T07:34:50;14.90;;;11.45;;
9072;SDS011;4572;41.642;25.370;2023-07-13T07:37:16;14.07;;;10.82;;
9072;SDS011;4572;41.642;25.370;2023-07-13T07:39:42;16.27;;;12.40;;
9072;SDS011;4572;41.642;25.370;2023-07-13T07:42:08;15.93;;;12.95;;
9072;SDS011;4572;41.642;25.370;2023-07-13T07:44:34;10.60;;;8.60;;
9072;SDS011;4572;41.642;25.370;2023-07-13T07:47:00;15.77;;;12.00;;
9072;SDS011;4572;41.642;25.370;2023-07-13T07:49:26;11.98;;;9.23;;
9072;SDS011;4572;41.642;25.370;2023-07-13T07:51:52;13.30;;;10.00;;
9072;SDS011;4572;41.642;25.370;2023-07-13T07:54:17;10.25;;;9.10;;
9072;SDS011;4572;41.642;25.370;2023-07-13T07:56:43;10.63;;;9.52;;
9072;SDS011;4572;41.642;25.370;2023-07-13T07:59:09;16.80;;;12.45;;
9072;SDS011;4572;41.642;25.370;2023-07-13T08:01:34;12.48;;;8.82;;
9072;SDS011;4572;41.642;25.370;2023-07-13T08:04:00;16.38;;;11.90;;
9072;SDS011;4572;41.642;25.370;2023-07-13T08:06:26;16.95;;;8.13;;
9072;SDS011;4572;41.642;25.370;2023-07-13T08:08:51;13.25;;;10.38;;
9072;SDS011;4572;41.642;25.370;2023-07-13T08:11:17;14.63;;;11.38;;
9072;SDS011;4572;41.642;25.370;2023-07-13T08:13:43;27.02;;;18.88;;
9072;SDS011;4572;41.642;25.370;2023-07-13T08:16:08;16.70;;;14.00;;
9072;SDS011;4572;41.642;25.370;2023-07-13T08:18:34;11.73;;;8.82;;
9072;SDS011;4572;41.642;25.370;2023-07-13T08:21:03;11.38;;;9.38;;
9072;SDS011;4572;41.642;25.370;2023-07-13T08:23:30;13.45;;;8.95;;
9072;SDS011;4572;41.642;25.370;2023-07-13T08:25:55;11.10;;;8.70;;
9072;SDS011;4572;41.642;25.370;2023-07-13T08:28:22;10.55;;;8.98;;
9072;SDS011;4572;41.642;25.370;2023-07-13T08:30:48;9.75;;;8.02;;
9072;SDS011;4572;41.642;25.370;2023-07-13T08:33:17;9.88;;;7.88;;
9072;SDS011;4572;41.642;25.370;2023-07-13T08:35:47;9.98;;;8.25;;
9072;SDS011;4572;41.642;25.370;2023-07-13T08:38:13;12.20;;;7.43;;
9072;SDS011;4572;41.642;25.370;2023-07-13T08:40:39;10.30;;;8.02;;
9072;SDS011;4572;41.642;25.370;2023-07-13T08:43:06;9.30;;;8.35;;
9072;SDS011;4572;41.642;25.370;2023-07-13T08:50:40;13.95;;;7.53;;
9072;SDS011;4572;41.642;25.370;2023-07-13T08:53:17;10.45;;;7.60;;
9072;SDS011;4572;41.642;25.370;2023-07-13T08:55:44;8.20;;;7.10;;
9072;SDS011;4572;41.642;25.370;2023-07-13T08:58:11;8.63;;;6.78;;
9072;SDS011;4572;41.642;25.370;2023-07-13T09:00:59;13.88;;;6.95;;
9072;SDS011;4572;41.642;25.370;2023-07-13T09:06:23;8.68;;;6.35;;
9072;SDS011;4572;41.642;25.370;2023-07-13T09:08:59;6.22;;;5.57;;
9072;SDS011;4572;41.642;25.370;2023-07-13T09:14:37;7.00;;;5.90;;
9072;SDS011;4572;41.642;25.370;2023-07-13T09:17:07;9.23;;;5.72;;
9072;SDS011;4572;41.642;25.370;2023-07-13T09:19:38;17.38;;;13.15;;
9072;SDS011;4572;41.642;25.370;2023-07-13T09:22:05;11.00;;;7.57;;
9072;SDS011;4572;41.642;25.370;2023-07-13T09:24:51;8.52;;;6.60;;
9072;SDS011;4572;41.642;25.370;2023-07-13T09:27:21;8.00;;;6.50;;
9072;SDS011;4572;41.642;25.370;2023-07-13T09:32:47;7.60;;;6.00;;
9072;SDS011;4572;41.642;25.370;2023-07-13T09:35:15;7.18;;;6.22;;
9072;SDS011;4572;41.642;25.370;2023-07-13T09:37:43;9.30;;;6.63;;
9072;SDS011;4572;41.642;25.370;2023-07-13T09:40:16;7.30;;;6.32;;
9072;SDS011;4572;41.642;25.370;2023-07-13T09:42:47;6.50;;;5.78;;
9072;SDS011;4572;41.642;25.370;2023-07-13T09:45:12;9.55;;;5.75;;
9072;SDS011;4572;41.642;25.370;2023-07-13T09:47:42;9.13;;;5.47;;
9072;SDS011;4572;41.642;25.370;2023-07-13T09:50:14;5.13;;;4.65;;
9072;SDS011;4572;41.642;25.370;2023-07-13T09:57:49;6.50;;;5.50;;
9072;SDS011;4572;41.642;25.370;2023-07-13T10:00:54;8.57;;;5.45;;
9072;SDS011;4572;41.642;25.370;2023-07-13T10:05:50;5.88;;;4.60;;
9072;SDS011;4572;41.642;25.370;2023-07-13T10:08:28;4.97;;;3.85;;
9072;SDS011;4572;41.642;25.370;2023-07-13T10:10:59;8.20;;;6.50;;
9072;SDS011;4572;41.642;25.370;2023-07-13T10:13:27;4.00;;;3.55;;
9072;SDS011;4572;41.642;25.370;2023-07-13T10:15:56;7.20;;;4.68;;
9072;SDS011;4572;41.642;25.370;2023-07-13T10:18:23;6.72;;;3.35;;
9072;SDS011;4572;41.642;25.370;2023-07-13T10:20:51;6.35;;;4.35;;
9072;SDS011;4572;41.642;25.370;2023-07-13T10:23:20;5.63;;;4.13;;
9072;SDS011;4572;41.642;25.370;2023-07-13T10:25:58;7.63;;;4.07;;
9072;SDS011;4572;41.642;25.370;2023-07-13T10:28:31;8.65;;;4.00;;
9072;SDS011;4572;41.642;25.370;2023-07-13T10:31:00;5.80;;;3.60;;
9072;SDS011;4572;41.642;25.370;2023-07-13T10:33:26;4.55;;;4.07;;
9072;SDS011;4572;41.642;25.370;2023-07-13T10:36:03;5.68;;;4.13;;
9072;SDS011;4572;41.642;25.370;2023-07-13T10:38:40;5.20;;;3.97;;
9072;SDS011;4572;41.642;25.370;2023-07-13T10:41:08;5.90;;;4.03;;
9072;SDS011;4572;41.642;25.370;2023-07-13T10:43:39;6.32;;;4.68;;
9072;SDS011;4572;41.642;25.370;2023-07-13T10:46:08;5.10;;;4.30;;
9072;SDS011;4572;41.642;25.370;2023-07-13T10:48:36;6.43;;;3.97;;
9072;SDS011;4572;41.642;25.370;2023-07-13T10:51:03;5.65;;;3.63;;
9072;SDS011;4572;41.642;25.370;2023-07-13T10:53:32;5.38;;;3.90;;
9072;SDS011;4572;41.642;25.370;2023-07-13T10:55:59;5.85;;;4.05;;
9072;SDS011;4572;41.642;25.370;2023-07-13T11:01:16;5.78;;;3.50;;
9072;SDS011;4572;41.642;25.370;2023-07-13T11:08:55;5.72;;;4.95;;
9072;SDS011;4572;41.642;25.370;2023-07-13T11:18:44;5.90;;;3.33;;
9072;SDS011;4572;41.642;25.370;2023-07-13T11:23:43;6.93;;;3.38;;
9072;SDS011;4572;41.642;25.370;2023-07-13T11:29:23;5.22;;;3.47;;
9072;SDS011;4572;41.642;25.370;2023-07-13T11:31:56;4.30;;;3.70;;
9072;SDS011;4572;41.642;25.370;2023-07-13T11:34:36;7.55;;;4.03;;
9072;SDS011;4572;41.642;25.370;2023-07-13T11:37:03;5.85;;;4.43;;
9072;SDS011;4572;41.642;25.370;2023-07-13T11:39:30;5.38;;;3.80;;
9072;SDS011;4572;41.642;25.370;2023-07-13T11:41:59;6.13;;;5.20;;
9072;SDS011;4572;41.642;25.370;2023-07-13T11:44:28;4.68;;;3.85;;
9072;SDS011;4572;41.642;25.370;2023-07-13T11:46:58;5.57;;;3.78;;
9072;SDS011;4572;41.642;25.370;2023-07-13T11:49:30;6.43;;;3.67;;
9072;SDS011;4572;41.642;25.370;2023-07-13T11:51:57;7.72;;;4.60;;
9072;SDS011;4572;41.642;25.370;2023-07-13T11:54:24;7.95;;;4.05;;
9072;SDS011;4572;41.642;25.370;2023-07-13T11:56:55;5.18;;;4.07;;
9072;SDS011;4572;41.642;25.370;2023-07-13T11:59:25;9.45;;;4.55;;
9072;SDS011;4572;41.642;25.370;2023-07-13T12:01:52;6.57;;;4.45;;
9072;SDS011;4572;41.642;25.370;2023-07-13T12:04:22;8.40;;;4.28;;
9072;SDS011;4572;41.642;25.370;2023-07-13T12:06:57;5.97;;;4.68;;
9072;SDS011;4572;41.642;25.370;2023-07-13T12:09:25;7.60;;;4.72;;
9072;SDS011;4572;41.642;25.370;2023-07-13T12:11:52;5.40;;;4.43;;
9072;SDS011;4572;41.642;25.370;2023-07-13T12:14:18;5.28;;;4.43;;
9072;SDS011;4572;41.642;25.370;2023-07-13T12:16:45;4.35;;;3.92;;
9072;SDS011;4572;41.642;25.370;2023-07-13T12:19:27;6.28;;;4.35;;
9072;SDS011;4572;41.642;25.370;2023-07-13T12:21:55;6.53;;;4.07;;
9072;SDS011;4572;41.642;25.370;2023-07-13T12:24:24;4.90;;;3.92;;
9072;SDS011;4572;41.642;25.370;2023-07-13T12:26:58;8.95;;;4.57;;
9072;SDS011;4572;41.642;25.370;2023-07-13T12:29:26;6.03;;;3.90;;
9072;SDS011;4572;41.642;25.370;2023-07-13T12:31:51;10.23;;;4.40;;
9072;SDS011;4572;41.642;25.370;2023-07-13T12:34:18;4.93;;;4.40;;
9072;SDS011;4572;41.642;25.370;2023-07-13T12:36:52;4.82;;;4.22;;
9072;SDS011;4572;41.642;25.370;2023-07-13T12:39:20;7.25;;;5.45;;
9072;SDS011;4572;41.642;25.370;2023-07-13T12:47:27;7.13;;;5.00;;
9072;SDS011;4572;41.642;25.370;2023-07-13T12:49:54;6.97;;;5.55;;
9072;SDS011;4572;41.642;25.370;2023-07-13T12:52:23;4.88;;;4.22;;
9072;SDS011;4572;41.642;25.370;2023-07-13T12:54:56;5.13;;;4.28;;
9072;SDS011;4572;41.642;25.370;2023-07-13T12:57:23;9.80;;;4.70;;
9072;SDS011;4572;41.642;25.370;2023-07-13T12:59:51;5.80;;;4.43;;
9072;SDS011;4572;41.642;25.370;2023-07-13T13:04:48;5.70;;;4.65;;
9072;SDS011;4572;41.642;25.370;2023-07-13T13:07:13;9.90;;;7.60;;
9072;SDS011;4572;41.642;25.370;2023-07-13T13:09:39;7.47;;;4.55;;
9072;SDS011;4572;41.642;25.370;2023-07-13T13:12:05;7.93;;;5.35;;
9072;SDS011;4572;41.642;25.370;2023-07-13T13:14:31;7.05;;;5.72;;
9072;SDS011;4572;41.642;25.370;2023-07-13T13:16:57;8.70;;;6.55;;
9072;SDS011;4572;41.642;25.370;2023-07-13T13:19:23;5.82;;;4.40;;
9072;SDS011;4572;41.642;25.370;2023-07-13T13:21:50;7.68;;;4.55;;
9072;SDS011;4572;41.642;25.370;2023-07-13T13:24:19;7.00;;;5.32;;
9072;SDS011;4572;41.642;25.370;2023-07-13T13:26:46;4.93;;;4.30;;
9072;SDS011;4572;41.642;25.370;2023-07-13T13:29:12;8.07;;;6.50;;
9072;SDS011;4572;41.642;25.370;2023-07-13T13:31:39;7.15;;;5.47;;
9072;SDS011;4572;41.642;25.370;2023-07-13T13:34:07;9.00;;;5.55;;
9072;SDS011;4572;41.642;25.370;2023-07-13T13:36:34;5.20;;;4.65;;
9072;SDS011;4572;41.642;25.370;2023-07-13T13:39:00;8.27;;;6.03;;
9072;SDS011;4572;41.642;25.370;2023-07-13T13:41:27;5.55;;;4.70;;
9072;SDS011;4572;41.642;25.370;2023-07-13T13:43:52;5.45;;;4.90;;
9072;SDS011;4572;41.642;25.370;2023-07-13T13:46:19;9.10;;;5.45;;
9072;SDS011;4572;41.642;25.370;2023-07-13T13:48:47;8.27;;;5.30;;
9072;SDS011;4572;41.642;25.370;2023-07-13T13:51:16;9.85;;;7.00;;
9072;SDS011;4572;41.642;25.370;2023-07-13T13:53:44;7.82;;;5.97;;
9072;SDS011;4572;41.642;25.370;2023-07-13T13:56:10;7.53;;;5.75;;
9072;SDS011;4572;41.642;25.370;2023-07-13T13:58:36;6.65;;;5.60;;
9072;SDS011;4572;41.642;25.370;2023-07-13T14:01:02;5.50;;;4.95;;
9072;SDS011;4572;41.642;25.370;2023-07-13T14:03:28;6.70;;;5.32;;
9072;SDS011;4572;41.642;25.370;2023-07-13T14:05:53;8.68;;;6.75;;
9072;SDS011;4572;41.642;25.370;2023-07-13T14:08:20;7.13;;;6.43;;
9072;SDS011;4572;41.642;25.370;2023-07-13T14:10:46;8.07;;;7.25;;
9072;SDS011;4572;41.642;25.370;2023-07-13T14:13:17;11.18;;;6.60;;
9072;SDS011;4572;41.642;25.370;2023-07-13T14:15:45;6.93;;;6.22;;
9072;SDS011;4572;41.642;25.370;2023-07-13T14:18:10;7.85;;;6.07;;
9072;SDS011;4572;41.642;25.370;2023-07-13T14:20:37;26.48;;;19.48;;
9072;SDS011;4572;41.642;25.370;2023-07-13T14:23:02;11.02;;;6.70;;
9072;SDS011;4572;41.642;25.370;2023-07-13T14:25:28;11.40;;;6.68;;
9072;SDS011;4572;41.642;25.370;2023-07-13T14:27:55;11.18;;;7.18;;
9072;SDS011;4572;41.642;25.370;2023-07-13T14:30:24;7.50;;;6.68;;
9072;SDS011;4572;41.642;25.370;2023-07-13T14:32:50;7.28;;;6.50;;
9072;SDS011;4572;41.642;25.370;2023-07-13T14:35:21;8.23;;;6.75;;
9072;SDS011;4572;41.642;25.370;2023-07-13T14:37:49;15.80;;;11.75;;
9072;SDS011;4572;41.642;25.370;2023-07-13T14:40:21;9.98;;;7.82;;
9072;SDS011;4572;41.642;25.370;2023-07-13T14:42:50;7.35;;;6.18;;
9072;SDS011;4572;41.642;25.370;2023-07-13T14:45:16;18.58;;;11.98;;
9072;SDS011;4572;41.642;25.370;2023-07-13T14:47:44;7.43;;;5.63;;
9072;SDS011;4572;41.642;25.370;2023-07-13T14:52:45;7.20;;;6.05;;
9072;SDS011;4572;41.642;25.370;2023-07-13T14:55:13;7.10;;;5.35;;
9072;SDS011;4572;41.642;25.370;2023-07-13T14:57:40;5.80;;;5.28;;
9072;SDS011;4572;41.642;25.370;2023-07-13T15:00:13;11.70;;;7.55;;
9072;SDS011;4572;41.642;25.370;2023-07-13T15:02:41;7.18;;;5.72;;
9072;SDS011;4572;41.642;25.370;2023-07-13T15:07:48;9.07;;;8.02;;
9072;SDS011;4572;41.642;25.370;2023-07-13T15:10:25;8.90;;;6.45;;
9072;SDS011;4572;41.642;25.370;2023-07-13T15:12:58;9.63;;;6.85;;
9072;SDS011;4572;41.642;25.370;2023-07-13T15:15:38;6.57;;;5.97;;
9072;SDS011;4572;41.642;25.370;2023-07-13T15:18:07;8.48;;;5.95;;
9072;SDS011;4572;41.642;25.370;2023-07-13T15:20:35;8.75;;;6.35;;
9072;SDS011;4572;41.642;25.370;2023-07-13T15:23:01;8.65;;;6.35;;
9072;SDS011;4572;41.642;25.370;2023-07-13T15:25:27;9.63;;;6.13;;
9072;SDS011;4572;41.642;25.370;2023-07-13T15:27:56;8.70;;;6.25;;
9072;SDS011;4572;41.642;25.370;2023-07-13T15:30:22;10.02;;;6.03;;
9072;SDS011;4572;41.642;25.370;2023-07-13T15:32:53;6.72;;;6.13;;
9072;SDS011;4572;41.642;25.370;2023-07-13T15:35:20;10.40;;;8.02;;
9072;SDS011;4572;41.642;25.370;2023-07-13T15:37:47;10.45;;;6.57;;
9072;SDS011;4572;41.642;25.370;2023-07-13T15:40:13;6.50;;;5.90;;
9072;SDS011;4572;41.642;25.370;2023-07-13T15:42:40;7.43;;;6.05;;
9072;SDS011;4572;41.642;25.370;2023-07-13T15:45:24;8.50;;;6.57;;
9072;SDS011;4572;41.642;25.370;2023-07-13T15:47:50;8.55;;;5.55;;
9072;SDS011;4572;41.642;25.370;2023-07-13T15:50:22;6.38;;;5.68;;
9072;SDS011;4572;41.642;25.370;2023-07-13T15:52:53;6.75;;;6.05;;
9072;SDS011;4572;41.642;25.370;2023-07-13T15:55:20;8.70;;;6.57;;